Other Surface Observations
Issued by NWS Great Falls, MT

Home | Current Version | Previous Version | Text Only | Print | Product List | Glossary On
Versions: 1 2 3 4 5 6 7 8 9 10 11 12 13 14 15 16 17 18 19 20 21 22 23 24 25 26 27 28 29 30 31 32 33 34 35 36 37 38 39 40 41 42 43 44 45 46 47 48 49 50
920
SXUS55 KTFX 190107
OSOTFX

AREA AWOS OBSERVATIONS
NATIONAL WEATHER SERVICE GREAT FALLS MT
0606 PM MST Sun Feb 18 2018

METAR K7S1 190055Z AUTO 34018KT 4SM M14/M20 A2969 RMK A01 T11441200
METAR K97M 190055Z AUTO 35011KT 3 1/2SM M16/M19 A2986 RMK A01 T11551194
METAR K9S2 190055Z AUTO 29000KT 40SM M16/M22 A3002 RMK A01 T11611222
METAR K9S5 190055Z AUTO 36007KT 0 1/2SM M13/M17 A2979 RMK A01 T11331166
METAR KS01 190055Z AUTO 31005KT 10SM M19/M22 A3003 RMK A01 T11881222
METAR KS34 190055Z AUTO 07002KT 40SM M09/M17 A2988 RMK A01 T10941166
METAR KTHM 190031Z AUTO 25016KT 10SM M08/M13 A2987 RMK A01 T10831133



USA.gov is the U.S. government's official web portal to all federal, state and local government web resources and services.